sensor_id;sensor_type;location;lat;lon;timestamp;pressure;altitude;pressure_sealevel;temperature;humidity
61026;BME280;46911;32.650;-16.902;2023-05-25T00:01:02;101568.38;;;16.12;69.82
61026;BME280;46911;32.650;-16.902;2023-05-25T00:03:03;101544.25;;;15.99;69.93
61026;BME280;46911;32.650;-16.902;2023-05-25T00:05:07;101562.50;;;16.06;69.76
61026;BME280;46911;32.650;-16.902;2023-05-25T00:07:08;101545.09;;;15.99;69.73
61026;BME280;46911;32.650;-16.902;2023-05-25T00:09:12;101533.84;;;15.94;70.02
61026;BME280;46911;32.650;-16.902;2023-05-25T00:11:13;101563.59;;;16.04;69.98
61026;BME280;46911;32.650;-16.902;2023-05-25T00:13:17;101531.63;;;15.88;70.11
61026;BME280;46911;32.650;-16.902;2023-05-25T00:15:18;101533.94;;;15.93;69.95
61026;BME280;46911;32.650;-16.902;2023-05-25T00:17:21;101535.06;;;15.90;69.91
61026;BME280;46911;32.650;-16.902;2023-05-25T00:19:23;101538.47;;;15.92;69.96
61026;BME280;46911;32.650;-16.902;2023-05-25T00:21:24;101533.34;;;15.89;69.77
61026;BME280;46911;32.650;-16.902;2023-05-25T00:23:25;101532.38;;;15.90;69.92
61026;BME280;46911;32.650;-16.902;2023-05-25T00:25:29;101541.44;;;16.00;69.75
61026;BME280;46911;32.650;-16.902;2023-05-25T00:27:30;101536.16;;;15.87;69.77
61026;BME280;46911;32.650;-16.902;2023-05-25T00:29:31;101532.09;;;15.82;70.13
61026;BME280;46911;32.650;-16.902;2023-05-25T00:31:32;101538.09;;;15.85;70.37
61026;BME280;46911;32.650;-16.902;2023-05-25T00:33:36;101550.34;;;15.89;70.28
61026;BME280;46911;32.650;-16.902;2023-05-25T00:35:38;101532.31;;;15.79;70.10
61026;BME280;46911;32.650;-16.902;2023-05-25T00:37:39;101558.28;;;15.91;70.02
61026;BME280;46911;32.650;-16.902;2023-05-25T00:39:46;101554.75;;;15.90;69.93
61026;BME280;46911;32.650;-16.902;2023-05-25T00:41:50;101533.53;;;15.74;70.04
61026;BME280;46911;32.650;-16.902;2023-05-25T00:43:51;101551.69;;;15.84;70.18
61026;BME280;46911;32.650;-16.902;2023-05-25T00:45:57;101539.41;;;15.80;70.18
61026;BME280;46911;32.650;-16.902;2023-05-25T00:47:58;101546.81;;;15.89;70.08
61026;BME280;46911;32.650;-16.902;2023-05-25T00:50:05;101552.91;;;15.91;70.03
61026;BME280;46911;32.650;-16.902;2023-05-25T00:52:13;101546.94;;;15.87;70.23
61026;BME280;46911;32.650;-16.902;2023-05-25T00:54:20;101546.03;;;15.87;70.25
61026;BME280;46911;32.650;-16.902;2023-05-25T00:56:25;101546.31;;;15.95;70.31
61026;BME280;46911;32.650;-16.902;2023-05-25T00:58:34;101547.03;;;15.86;70.46
61026;BME280;46911;32.650;-16.902;2023-05-25T01:00:39;101544.44;;;15.84;70.56
61026;BME280;46911;32.650;-16.902;2023-05-25T01:02:44;101526.94;;;15.79;70.42
61026;BME280;46911;32.650;-16.902;2023-05-25T01:04:51;101541.53;;;15.87;70.29
61026;BME280;46911;32.650;-16.902;2023-05-25T01:06:55;101532.31;;;15.79;70.58
61026;BME280;46911;32.650;-16.902;2023-05-25T01:09:03;101531.25;;;15.81;70.39
61026;BME280;46911;32.650;-16.902;2023-05-25T01:11:10;101534.03;;;15.80;70.66
61026;BME280;46911;32.650;-16.902;2023-05-25T01:13:16;101536.72;;;15.80;70.82
61026;BME280;46911;32.650;-16.902;2023-05-25T01:15:19;101540.50;;;15.77;70.74
61026;BME280;46911;32.650;-16.902;2023-05-25T01:17:20;101532.31;;;15.79;70.58
61026;BME280;46911;32.650;-16.902;2023-05-25T01:19:27;101532.97;;;15.82;70.52
61026;BME280;46911;32.650;-16.902;2023-05-25T01:21:54;101519.31;;;15.72;70.56
61026;BME280;46911;32.650;-16.902;2023-05-25T01:26:12;101527.16;;;15.76;70.69
61026;BME280;46911;32.650;-16.902;2023-05-25T01:28:38;101504.25;;;15.59;70.79
61026;BME280;46911;32.650;-16.902;2023-05-25T01:30:41;101487.84;;;15.50;70.81
61026;BME280;46911;32.650;-16.902;2023-05-25T01:32:44;101502.53;;;15.57;71.10
61026;BME280;46911;32.650;-16.902;2023-05-25T01:34:46;101521.28;;;15.70;70.78
61026;BME280;46911;32.650;-16.902;2023-05-25T01:36:48;101511.16;;;15.74;70.76
61026;BME280;46911;32.650;-16.902;2023-05-25T01:38:49;101510.25;;;15.62;71.03
61026;BME280;46911;32.650;-16.902;2023-05-25T01:40:53;101492.03;;;15.54;71.05
61026;BME280;46911;32.650;-16.902;2023-05-25T01:42:54;101485.16;;;15.50;71.03
61026;BME280;46911;32.650;-16.902;2023-05-25T01:44:58;101506.56;;;15.63;71.24
61026;BME280;46911;32.650;-16.902;2023-05-25T01:47:07;101483.13;;;15.54;71.13
61026;BME280;46911;32.650;-16.902;2023-05-25T01:49:25;101504.25;;;15.59;71.27
61026;BME280;46911;32.650;-16.902;2023-05-25T01:51:33;101496.56;;;15.54;71.72
61026;BME280;46911;32.650;-16.902;2023-05-25T01:53:42;101479.28;;;15.45;71.63
61026;BME280;46911;32.650;-16.902;2023-05-25T01:56:02;101495.44;;;15.56;71.47
61026;BME280;46911;32.650;-16.902;2023-05-25T01:58:06;101494.97;;;15.51;71.30
61026;BME280;46911;32.650;-16.902;2023-05-25T02:00:14;101474.75;;;15.46;71.18
61026;BME280;46911;32.650;-16.902;2023-05-25T02:02:18;101489.47;;;15.53;71.41
61026;BME280;46911;32.650;-16.902;2023-05-25T02:04:20;101465.34;;;15.40;71.11
61026;BME280;46911;32.650;-16.902;2023-05-25T02:06:21;101433.50;;;15.22;71.13
61026;BME280;46911;32.650;-16.902;2023-05-25T02:08:25;101484.41;;;15.48;71.09
61026;BME280;46911;32.650;-16.902;2023-05-25T02:10:26;101480.13;;;15.46;71.08
61026;BME280;46911;32.650;-16.902;2023-05-25T02:12:29;101465.78;;;15.34;71.15
61026;BME280;46911;32.650;-16.902;2023-05-25T02:14:34;101483.81;;;15.45;71.12
61026;BME280;46911;32.650;-16.902;2023-05-25T02:16:35;101482.94;;;15.44;71.00
61026;BME280;46911;32.650;-16.902;2023-05-25T02:18:38;101471.56;;;15.40;70.99
61026;BME280;46911;32.650;-16.902;2023-05-25T02:20:39;101483.19;;;15.52;70.64
61026;BME280;46911;32.650;-16.902;2023-05-25T02:22:40;101463.50;;;15.40;70.60
61026;BME280;46911;32.650;-16.902;2023-05-25T02:24:41;101466.66;;;15.34;70.63
61026;BME280;46911;32.650;-16.902;2023-05-25T02:26:42;101466.09;;;15.42;70.35
61026;BME280;46911;32.650;-16.902;2023-05-25T02:28:46;101467.75;;;15.32;70.44
61026;BME280;46911;32.650;-16.902;2023-05-25T02:30:51;101486.25;;;15.48;70.35
61026;BME280;46911;32.650;-16.902;2023-05-25T02:32:55;101467.50;;;15.35;70.29
61026;BME280;46911;32.650;-16.902;2023-05-25T02:34:56;101485.00;;;15.40;70.36
61026;BME280;46911;32.650;-16.902;2023-05-25T02:37:02;101486.72;;;15.42;70.29
61026;BME280;46911;32.650;-16.902;2023-05-25T02:39:03;101465.31;;;15.29;70.23
61026;BME280;46911;32.650;-16.902;2023-05-25T02:41:07;101465.19;;;15.30;70.28
61026;BME280;46911;32.650;-16.902;2023-05-25T02:43:08;101438.94;;;15.10;70.16
61026;BME280;46911;32.650;-16.902;2023-05-25T02:45:12;101462.97;;;15.24;70.13
61026;BME280;46911;32.650;-16.902;2023-05-25T02:47:17;101474.34;;;15.28;70.05
61026;BME280;46911;32.650;-16.902;2023-05-25T02:49:18;101470.56;;;15.30;69.70
61026;BME280;46911;32.650;-16.902;2023-05-25T02:51:22;101486.13;;;15.38;69.35
61026;BME280;46911;32.650;-16.902;2023-05-25T02:53:25;101487.94;;;15.37;69.40
61026;BME280;46911;32.650;-16.902;2023-05-25T02:55:27;101471.78;;;15.26;69.02
61026;BME280;46911;32.650;-16.902;2023-05-25T02:57:30;101472.97;;;15.22;69.28
61026;BME280;46911;32.650;-16.902;2023-05-25T02:59:32;101466.59;;;15.23;69.22
61026;BME280;46911;32.650;-16.902;2023-05-25T03:01:39;101484.97;;;15.29;69.07
61026;BME280;46911;32.650;-16.902;2023-05-25T03:03:41;101485.94;;;15.28;69.16
61026;BME280;46911;32.650;-16.902;2023-05-25T03:05:42;101484.22;;;15.27;68.86
61026;BME280;46911;32.650;-16.902;2023-05-25T03:07:46;101466.59;;;15.12;69.03
61026;BME280;46911;32.650;-16.902;2023-05-25T03:09:47;101484.69;;;15.21;69.19
61026;BME280;46911;32.650;-16.902;2023-05-25T03:11:48;101488.34;;;15.20;69.05
61026;BME280;46911;32.650;-16.902;2023-05-25T03:13:51;101473.56;;;15.14;69.07
61026;BME280;46911;32.650;-16.902;2023-05-25T03:15:55;101477.38;;;15.23;68.72
61026;BME280;46911;32.650;-16.902;2023-05-25T03:17:59;101483.72;;;15.22;68.70
61026;BME280;46911;32.650;-16.902;2023-05-25T03:20:04;101483.72;;;15.22;68.68
61026;BME280;46911;32.650;-16.902;2023-05-25T03:22:10;101464.28;;;15.18;68.65
61026;BME280;46911;32.650;-16.902;2023-05-25T03:24:11;101467.53;;;15.11;68.58
61026;BME280;46911;32.650;-16.902;2023-05-25T03:26:13;101456.69;;;15.12;68.77
61026;BME280;46911;32.650;-16.902;2023-05-25T03:28:19;101477.97;;;15.15;68.83
61026;BME280;46911;32.650;-16.902;2023-05-25T03:30:26;101480.16;;;15.21;68.83
61026;BME280;46911;32.650;-16.902;2023-05-25T03:32:27;101472.78;;;15.12;68.57
61026;BME280;46911;32.650;-16.902;2023-05-25T03:34:34;101470.47;;;15.07;68.89
61026;BME280;46911;32.650;-16.902;2023-05-25T03:36:41;101478.69;;;15.17;68.91
61026;BME280;46911;32.650;-16.902;2023-05-25T03:38:49;101469.25;;;15.12;69.04
61026;BME280;46911;32.650;-16.902;2023-05-25T03:40:50;101480.94;;;15.23;68.92
61026;BME280;46911;32.650;-16.902;2023-05-25T03:42:51;101481.88;;;15.22;69.00
61026;BME280;46911;32.650;-16.902;2023-05-25T03:44:52;101472.09;;;15.21;69.18
61026;BME280;46911;32.650;-16.902;2023-05-25T03:46:52;101468.34;;;15.24;69.22
61026;BME280;46911;32.650;-16.902;2023-05-25T03:48:55;101473.94;;;15.21;69.31
61026;BME280;46911;32.650;-16.902;2023-05-25T03:50:56;101453.59;;;15.05;69.39
61026;BME280;46911;32.650;-16.902;2023-05-25T03:53:03;101453.38;;;15.09;69.25
61026;BME280;46911;32.650;-16.902;2023-05-25T03:55:09;101456.16;;;15.07;69.37
61026;BME280;46911;32.650;-16.902;2023-05-25T03:57:16;101483.09;;;15.18;69.29
61026;BME280;46911;32.650;-16.902;2023-05-25T03:59:19;101458.00;;;15.06;69.39
61026;BME280;46911;32.650;-16.902;2023-05-25T04:01:21;101459.22;;;15.02;69.34
61026;BME280;46911;32.650;-16.902;2023-05-25T04:03:28;101480.66;;;15.15;69.34
61026;BME280;46911;32.650;-16.902;2023-05-25T04:05:29;101483.53;;;15.12;69.51
61026;BME280;46911;32.650;-16.902;2023-05-25T04:07:30;101481.94;;;15.10;69.66
61026;BME280;46911;32.650;-16.902;2023-05-25T04:09:34;101462.00;;;15.01;69.64
61026;BME280;46911;32.650;-16.902;2023-05-25T04:11:37;101484.19;;;15.16;69.58
61026;BME280;46911;32.650;-16.902;2023-05-25T04:13:42;101463.09;;;14.98;69.87
61026;BME280;46911;32.650;-16.902;2023-05-25T04:15:43;101480.97;;;15.11;70.08
61026;BME280;46911;32.650;-16.902;2023-05-25T04:17:51;101486.22;;;15.12;70.34
61026;BME280;46911;32.650;-16.902;2023-05-25T04:19:55;101466.50;;;15.00;70.25
61026;BME280;46911;32.650;-16.902;2023-05-25T04:21:56;101493.34;;;15.13;70.35
61026;BME280;46911;32.650;-16.902;2023-05-25T04:23:57;101495.06;;;15.14;69.97
61026;BME280;46911;32.650;-16.902;2023-05-25T04:26:00;101490.31;;;15.18;70.14
61026;BME280;46911;32.650;-16.902;2023-05-25T04:28:03;101490.53;;;15.15;69.92
61026;BME280;46911;32.650;-16.902;2023-05-25T04:30:23;101469.31;;;14.99;69.77
61026;BME280;46911;32.650;-16.902;2023-05-25T04:32:53;101489.03;;;15.11;69.69
61026;BME280;46911;32.650;-16.902;2023-05-25T04:35:17;101490.00;;;15.10;69.79
61026;BME280;46911;32.650;-16.902;2023-05-25T04:37:22;101465.38;;;14.92;70.01
61026;BME280;46911;32.650;-16.902;2023-05-25T04:39:29;101487.69;;;15.05;70.06
61026;BME280;46911;32.650;-16.902;2023-05-25T04:41:31;101468.06;;;14.92;69.97
61026;BME280;46911;32.650;-16.902;2023-05-25T04:43:38;101484.34;;;15.01;70.02
61026;BME280;46911;32.650;-16.902;2023-05-25T04:45:49;101485.97;;;15.04;69.95
61026;BME280;46911;32.650;-16.902;2023-05-25T04:47:53;101460.97;;;14.90;70.03
61026;BME280;46911;32.650;-16.902;2023-05-25T04:49:57;101478.59;;;14.95;70.01
61026;BME280;46911;32.650;-16.902;2023-05-25T04:52:00;101465.72;;;14.87;70.45
61026;BME280;46911;32.650;-16.902;2023-05-25T04:54:04;101478.47;;;14.96;70.42
61026;BME280;46911;32.650;-16.902;2023-05-25T04:56:09;101457.66;;;14.87;70.22
61026;BME280;46911;32.650;-16.902;2023-05-25T04:58:14;101480.31;;;14.96;70.38
61026;BME280;46911;32.650;-16.902;2023-05-25T05:00:16;101454.38;;;14.83;70.10
61026;BME280;46911;32.650;-16.902;2023-05-25T05:02:25;101478.25;;;14.99;70.20
61026;BME280;46911;32.650;-16.902;2023-05-25T05:04:29;101480.19;;;14.97;70.15
61026;BME280;46911;32.650;-16.902;2023-05-25T05:06:35;101466.75;;;14.97;70.11
61026;BME280;46911;32.650;-16.902;2023-05-25T05:08:39;101459.91;;;14.93;70.16
61026;BME280;46911;32.650;-16.902;2023-05-25T05:10:41;101465.16;;;14.95;70.16
61026;BME280;46911;32.650;-16.902;2023-05-25T05:12:44;101466.75;;;14.97;70.26
61026;BME280;46911;32.650;-16.902;2023-05-25T05:14:45;101460.03;;;14.92;70.11
61026;BME280;46911;32.650;-16.902;2023-05-25T05:16:49;101452.91;;;14.90;70.04
61026;BME280;46911;32.650;-16.902;2023-05-25T05:18:53;101464.31;;;14.94;70.01
61026;BME280;46911;32.650;-16.902;2023-05-25T05:20:57;101448.34;;;14.80;70.18
61026;BME280;46911;32.650;-16.902;2023-05-25T05:23:02;101467.00;;;14.94;69.86
61026;BME280;46911;32.650;-16.902;2023-05-25T05:25:07;101454.13;;;14.86;69.83
61026;BME280;46911;32.650;-16.902;2023-05-25T05:27:08;101449.84;;;14.84;69.82
61026;BME280;46911;32.650;-16.902;2023-05-25T05:29:18;101454.97;;;14.87;69.77
61026;BME280;46911;32.650;-16.902;2023-05-25T05:31:22;101470.91;;;15.01;69.83
61026;BME280;46911;32.650;-16.902;2023-05-25T05:33:23;101460.75;;;14.94;69.64
61026;BME280;46911;32.650;-16.902;2023-05-25T05:35:27;101449.00;;;14.83;70.04
61026;BME280;46911;32.650;-16.902;2023-05-25T05:37:38;101464.91;;;14.98;69.65
61026;BME280;46911;32.650;-16.902;2023-05-25T05:39:39;101457.78;;;14.85;69.93
61026;BME280;46911;32.650;-16.902;2023-05-25T05:41:43;101446.41;;;14.82;70.19
61026;BME280;46911;32.650;-16.902;2023-05-25T05:43:45;101472.38;;;14.94;70.13
61026;BME280;46911;32.650;-16.902;2023-05-25T05:45:49;101464.50;;;14.91;70.09
61026;BME280;46911;32.650;-16.902;2023-05-25T05:47:53;101444.91;;;14.78;69.88
61026;BME280;46911;32.650;-16.902;2023-05-25T05:49:54;101450.91;;;14.81;69.71
61026;BME280;46911;32.650;-16.902;2023-05-25T05:51:55;101448.34;;;14.80;69.73
61026;BME280;46911;32.650;-16.902;2023-05-25T05:54:01;101438.81;;;14.76;69.66
61026;BME280;46911;32.650;-16.902;2023-05-25T05:56:05;101447.28;;;14.82;69.38
61026;BME280;46911;32.650;-16.902;2023-05-25T05:58:07;101458.34;;;14.78;69.17
61026;BME280;46911;32.650;-16.902;2023-05-25T06:00:08;101476.97;;;14.92;68.89
61026;BME280;46911;32.650;-16.902;2023-05-25T06:02:15;101473.44;;;14.92;69.04
61026;BME280;46911;32.650;-16.902;2023-05-25T06:04:17;101458.44;;;14.76;68.83
61026;BME280;46911;32.650;-16.902;2023-05-25T06:06:19;101461.66;;;14.81;68.82
61026;BME280;46911;32.650;-16.902;2023-05-25T06:08:23;101439.59;;;14.65;68.74
61026;BME280;46911;32.650;-16.902;2023-05-25T06:10:26;101459.34;;;14.77;68.72
61026;BME280;46911;32.650;-16.902;2023-05-25T06:12:29;101462.53;;;14.82;68.39
61026;BME280;46911;32.650;-16.902;2023-05-25T06:14:32;101479.47;;;14.95;68.39
61026;BME280;46911;32.650;-16.902;2023-05-25T06:16:36;101475.78;;;14.96;68.35
61026;BME280;46911;32.650;-16.902;2023-05-25T06:18:40;101463.25;;;14.84;68.41
61026;BME280;46911;32.650;-16.902;2023-05-25T06:20:41;101468.63;;;14.84;68.35
61026;BME280;46911;32.650;-16.902;2023-05-25T06:22:42;101484.34;;;15.01;68.30
61026;BME280;46911;32.650;-16.902;2023-05-25T06:24:43;101489.00;;;14.99;68.23
61026;BME280;46911;32.650;-16.902;2023-05-25T06:26:47;101468.06;;;14.92;68.38
61026;BME280;46911;32.650;-16.902;2023-05-25T06:28:48;101485.84;;;15.05;67.86
61026;BME280;46911;32.650;-16.902;2023-05-25T06:30:49;101481.53;;;15.03;67.84
61026;BME280;46911;32.650;-16.902;2023-05-25T06:32:50;101474.13;;;15.06;67.46
61026;BME280;46911;32.650;-16.902;2023-05-25T06:34:51;101493.50;;;15.23;67.05
61026;BME280;46911;32.650;-16.902;2023-05-25T06:36:55;101477.31;;;15.12;66.98
61026;BME280;46911;32.650;-16.902;2023-05-25T06:39:02;101496.47;;;15.31;66.72
61026;BME280;46911;32.650;-16.902;2023-05-25T06:41:03;101480.94;;;15.23;66.04
61026;BME280;46911;32.650;-16.902;2023-05-25T06:43:05;101510.19;;;15.39;65.69
61026;BME280;46911;32.650;-16.902;2023-05-25T06:45:18;101490.38;;;15.40;65.30
61026;BME280;46911;32.650;-16.902;2023-05-25T06:47:22;101498.38;;;15.53;64.85
61026;BME280;46911;32.650;-16.902;2023-05-25T06:49:23;101493.13;;;15.52;64.62
61026;BME280;46911;32.650;-16.902;2023-05-25T06:51:26;101494.59;;;15.56;64.73
61026;BME280;46911;32.650;-16.902;2023-05-25T06:53:27;101490.94;;;15.57;64.48
61026;BME280;46911;32.650;-16.902;2023-05-25T06:55:30;101493.25;;;15.62;64.53
61026;BME280;46911;32.650;-16.902;2023-05-25T06:57:31;101506.38;;;15.78;64.07
61026;BME280;46911;32.650;-16.902;2023-05-25T06:59:39;101515.03;;;15.94;63.70
61026;BME280;46911;32.650;-16.902;2023-05-25T07:01:45;101504.97;;;15.96;63.59
61026;BME280;46911;32.650;-16.902;2023-05-25T07:03:46;101508.41;;;15.98;63.24
61026;BME280;46911;32.650;-16.902;2023-05-25T07:05:51;101496.19;;;16.05;63.20
61026;BME280;46911;32.650;-16.902;2023-05-25T07:07:55;101505.47;;;16.13;63.05
61026;BME280;46911;32.650;-16.902;2023-05-25T07:09:58;101501.09;;;16.12;62.84
61026;BME280;46911;32.650;-16.902;2023-05-25T07:12:00;101509.16;;;16.23;62.77
61026;BME280;46911;32.650;-16.902;2023-05-25T07:14:00;101525.19;;;16.36;62.63
61026;BME280;46911;32.650;-16.902;2023-05-25T07:16:04;101528.75;;;16.36;62.59
61026;BME280;46911;32.650;-16.902;2023-05-25T07:18:07;101524.69;;;16.42;62.42
61026;BME280;46911;32.650;-16.902;2023-05-25T07:20:12;101510.63;;;16.38;62.13
61026;BME280;46911;32.650;-16.902;2023-05-25T07:22:13;101513.69;;;16.45;62.17
61026;BME280;46911;32.650;-16.902;2023-05-25T07:24:16;101516.38;;;16.45;62.16
61026;BME280;46911;32.650;-16.902;2023-05-25T07:26:21;101537.44;;;16.63;61.95
61026;BME280;46911;32.650;-16.902;2023-05-25T07:28:23;101518.94;;;16.58;61.99
61026;BME280;46911;32.650;-16.902;2023-05-25T07:30:23;101543.78;;;16.73;61.90
61026;BME280;46911;32.650;-16.902;2023-05-25T07:32:24;101483.31;;;16.43;61.86
61026;BME280;46911;32.650;-16.902;2023-05-25T07:34:25;101522.34;;;16.71;61.77
61026;BME280;46911;32.650;-16.902;2023-05-25T07:36:26;101529.09;;;16.77;61.59
61026;BME280;46911;32.650;-16.902;2023-05-25T07:38:30;101544.63;;;16.96;61.43
61026;BME280;46911;32.650;-16.902;2023-05-25T07:40:31;101551.13;;;17.05;60.89
61026;BME280;46911;32.650;-16.902;2023-05-25T07:42:32;101529.22;;;16.98;61.13
61026;BME280;46911;32.650;-16.902;2023-05-25T07:44:36;101529.22;;;16.98;61.29
61026;BME280;46911;32.650;-16.902;2023-05-25T07:46:37;101538.00;;;17.12;61.35
61026;BME280;46911;32.650;-16.902;2023-05-25T07:48:38;101542.38;;;17.13;61.47
61026;BME280;46911;32.650;-16.902;2023-05-25T07:50:39;101552.88;;;17.27;61.74
61026;BME280;46911;32.650;-16.902;2023-05-25T07:52:43;101543.19;;;17.24;61.42
61026;BME280;46911;32.650;-16.902;2023-05-25T07:54:44;101549.16;;;17.39;61.22
61026;BME280;46911;32.650;-16.902;2023-05-25T07:56:45;101557.84;;;17.43;61.32
61026;BME280;46911;32.650;-16.902;2023-05-25T07:58:51;101564.91;;;17.55;61.30
61026;BME280;46911;32.650;-16.902;2023-05-25T08:00:52;101536.59;;;17.50;61.08
61026;BME280;46911;32.650;-16.902;2023-05-25T08:02:54;101565.56;;;17.69;61.13
61026;BME280;46911;32.650;-16.902;2023-05-25T08:04:58;101549.66;;;17.66;61.12
61026;BME280;46911;32.650;-16.902;2023-05-25T08:07:06;101569.69;;;17.84;61.02
61026;BME280;46911;32.650;-16.902;2023-05-25T08:09:07;101568.03;;;17.93;61.05
61026;BME280;46911;32.650;-16.902;2023-05-25T08:11:10;101572.66;;;18.02;61.14
61026;BME280;46911;32.650;-16.902;2023-05-25T08:13:11;101553.72;;;17.93;61.20
61026;BME280;46911;32.650;-16.902;2023-05-25T08:15:12;101558.19;;;18.03;61.00
61026;BME280;46911;32.650;-16.902;2023-05-25T08:17:16;101576.75;;;18.18;61.24
61026;BME280;46911;32.650;-16.902;2023-05-25T08:19:19;101563.84;;;18.21;61.07
61026;BME280;46911;32.650;-16.902;2023-05-25T08:21:26;101564.69;;;18.22;61.31
61026;BME280;46911;32.650;-16.902;2023-05-25T08:23:29;101561.59;;;18.27;61.29
61026;BME280;46911;32.650;-16.902;2023-05-25T08:25:30;101576.16;;;18.45;61.02
61026;BME280;46911;32.650;-16.902;2023-05-25T08:27:31;101579.06;;;18.53;61.22
61026;BME280;46911;32.650;-16.902;2023-05-25T08:29:32;101581.34;;;18.58;61.31
61026;BME280;46911;32.650;-16.902;2023-05-25T08:31:33;101546.06;;;18.50;60.96
61026;BME280;46911;32.650;-16.902;2023-05-25T08:33:39;101574.59;;;18.73;61.19
61026;BME280;46911;32.650;-16.902;2023-05-25T08:35:42;101573.78;;;18.83;61.04
61026;BME280;46911;32.650;-16.902;2023-05-25T08:37:43;101564.09;;;18.80;61.05
61026;BME280;46911;32.650;-16.902;2023-05-25T08:39:44;101579.69;;;18.98;61.25
61026;BME280;46911;32.650;-16.902;2023-05-25T08:41:49;101556.75;;;18.92;60.77
61026;BME280;46911;32.650;-16.902;2023-05-25T08:43:52;101565.28;;;18.97;60.65
61026;BME280;46911;32.650;-16.902;2023-05-25T08:46:05;101579.00;;;19.05;60.33
61026;BME280;46911;32.650;-16.902;2023-05-25T08:48:09;101590.09;;;19.12;60.52
61026;BME280;46911;32.650;-16.902;2023-05-25T08:50:18;101567.88;;;19.09;60.88
61026;BME280;46911;32.650;-16.902;2023-05-25T08:52:23;101592.66;;;19.14;60.46
61026;BME280;46911;32.650;-16.902;2023-05-25T08:54:36;101602.06;;;19.10;60.94
61026;BME280;46911;32.650;-16.902;2023-05-25T08:57:02;101592.22;;;19.18;60.76
61026;BME280;46911;32.650;-16.902;2023-05-25T08:59:17;101583.81;;;19.12;61.21
61026;BME280;46911;32.650;-16.902;2023-05-25T09:01:24;101572.97;;;18.92;61.31
61026;BME280;46911;32.650;-16.902;2023-05-25T09:03:30;101591.09;;;19.11;61.63
61026;BME280;46911;32.650;-16.902;2023-05-25T09:05:36;101577.72;;;19.10;61.35
61026;BME280;46911;32.650;-16.902;2023-05-25T09:07:37;101592.91;;;19.11;61.46
61026;BME280;46911;32.650;-16.902;2023-05-25T09:09:46;101594.09;;;19.18;61.12
61026;BME280;46911;32.650;-16.902;2023-05-25T09:11:51;101566.50;;;19.34;60.17
61026;BME280;46911;32.650;-16.902;2023-05-25T09:13:52;101581.19;;;19.51;60.24
61026;BME280;46911;32.650;-16.902;2023-05-25T09:15:55;101589.31;;;19.90;59.59
61026;BME280;46911;32.650;-16.902;2023-05-25T09:17:58;101578.59;;;20.18;58.74
61026;BME280;46911;32.650;-16.902;2023-05-25T09:19:59;101572.03;;;20.48;57.78
61026;BME280;46911;32.650;-16.902;2023-05-25T09:22:03;101596.75;;;20.83;56.77
61026;BME280;46911;32.650;-16.902;2023-05-25T09:24:09;101578.81;;;20.82;55.96
61026;BME280;46911;32.650;-16.902;2023-05-25T09:26:11;101590.81;;;20.79;56.79
61026;BME280;46911;32.650;-16.902;2023-05-25T09:28:12;101582.03;;;21.13;56.06
61026;BME280;46911;32.650;-16.902;2023-05-25T09:30:15;101585.81;;;20.74;56.16
61026;BME280;46911;32.650;-16.902;2023-05-25T09:32:21;101587.06;;;20.80;56.83
61026;BME280;46911;32.650;-16.902;2023-05-25T09:34:23;101589.09;;;20.78;56.38
61026;BME280;46911;32.650;-16.902;2023-05-25T09:36:29;101573.34;;;21.10;55.70
61026;BME280;46911;32.650;-16.902;2023-05-25T09:38:32;101593.84;;;21.40;55.22
61026;BME280;46911;32.650;-16.902;2023-05-25T09:40:33;101591.13;;;21.40;55.79
61026;BME280;46911;32.650;-16.902;2023-05-25T09:42:35;101567.06;;;21.27;55.02
61026;BME280;46911;32.650;-16.902;2023-05-25T09:44:39;101590.38;;;21.84;54.69
61026;BME280;46911;32.650;-16.902;2023-05-25T09:46:44;101590.91;;;21.87;54.41
61026;BME280;46911;32.650;-16.902;2023-05-25T09:48:45;101597.47;;;22.03;53.20
61026;BME280;46911;32.650;-16.902;2023-05-25T09:50:50;101592.94;;;21.85;53.76
61026;BME280;46911;32.650;-16.902;2023-05-25T09:52:57;101584.69;;;22.21;53.46
61026;BME280;46911;32.650;-16.902;2023-05-25T09:55:01;101596.72;;;22.37;53.11
61026;BME280;46911;32.650;-16.902;2023-05-25T09:57:07;101599.06;;;22.14;53.69
61026;BME280;46911;32.650;-16.902;2023-05-25T09:59:10;101594.22;;;21.99;53.85
61026;BME280;46911;32.650;-16.902;2023-05-25T10:01:11;101601.97;;;22.12;53.48
61026;BME280;46911;32.650;-16.902;2023-05-25T10:03:12;101605.28;;;22.24;53.51
61026;BME280;46911;32.650;-16.902;2023-05-25T10:05:17;101606.84;;;22.53;52.54
61026;BME280;46911;32.650;-16.902;2023-05-25T10:07:18;101587.97;;;22.25;53.34
61026;BME280;46911;32.650;-16.902;2023-05-25T10:09:20;101611.63;;;22.33;53.13
61026;BME280;46911;32.650;-16.902;2023-05-25T10:11:23;101593.16;;;23.14;51.50
61026;BME280;46911;32.650;-16.902;2023-05-25T10:13:26;101600.88;;;23.27;50.25
61026;BME280;46911;32.650;-16.902;2023-05-25T10:15:30;101589.16;;;23.34;50.46
61026;BME280;46911;32.650;-16.902;2023-05-25T10:17:35;101603.25;;;22.87;51.08
61026;BME280;46911;32.650;-16.902;2023-05-25T10:19:56;101618.03;;;22.84;51.24
61026;BME280;46911;32.650;-16.902;2023-05-25T10:22:05;101615.72;;;22.63;52.54
61026;BME280;46911;32.650;-16.902;2023-05-25T10:26:38;101612.72;;;24.01;48.00
61026;BME280;46911;32.650;-16.902;2023-05-25T10:28:43;101616.78;;;23.89;49.42
61026;BME280;46911;32.650;-16.902;2023-05-25T10:30:46;101603.66;;;23.93;49.06
61026;BME280;46911;32.650;-16.902;2023-05-25T10:32:54;101611.31;;;23.81;49.92
61026;BME280;46911;32.650;-16.902;2023-05-25T10:34:57;101616.56;;;24.32;48.25
61026;BME280;46911;32.650;-16.902;2023-05-25T10:37:00;101609.38;;;25.03;46.60